createdAt,value
2022-08-20T00:01:16.163Z,95671.28
2022-08-20T00:06:24.450Z,95674.53
2022-08-20T00:11:29.086Z,95674.38
2022-08-20T00:16:34.694Z,95680.81
2022-08-20T00:21:37.430Z,95681.28
2022-08-20T00:26:51.989Z,95686.50
2022-08-20T00:31:54.546Z,95677.09
2022-08-20T00:36:57.380Z,95679.69
2022-08-20T00:42:02.870Z,95679.47
2022-08-20T00:47:06.561Z,95673.75
2022-08-20T00:52:16.012Z,95675.41
2022-08-20T00:58:01.033Z,95682.13
2022-08-20T01:03:10.125Z,95680.13
2022-08-20T01:08:16.135Z,95675.94
2022-08-20T01:13:24.360Z,95671.25
2022-08-20T01:18:28.380Z,95669.06
2022-08-20T01:23:44.918Z,95673.06
2022-08-20T01:28:52.422Z,95674.28
2022-08-20T01:33:57.080Z,95671.31
2022-08-20T01:39:01.499Z,95666.09
2022-08-20T01:44:03.912Z,95671.19
2022-08-20T01:49:22.953Z,95665.84
2022-08-20T01:54:27.604Z,95675.88
2022-08-20T01:59:30.476Z,95674.34
2022-08-20T02:04:32.752Z,95676.34
2022-08-20T02:09:37.981Z,95666.94
2022-08-20T02:14:45.261Z,95668.47
2022-08-20T02:19:59.571Z,95665.69
2022-08-20T02:25:02.523Z,95668.34
2022-08-20T02:30:11.549Z,95668.53
2022-08-20T02:35:24.584Z,95662.66
2022-08-20T02:40:31.105Z,95665.88
2022-08-20T02:45:40.713Z,95667.44
2022-08-20T02:50:44.536Z,95665.28
2022-08-20T02:55:46.902Z,95662.72
2022-08-20T03:00:50.472Z,95671.03
2022-08-20T03:05:55.795Z,95684.31
2022-08-20T03:10:58.336Z,95679.53
2022-08-20T03:16:02.252Z,95680.63
2022-08-20T03:21:06.146Z,95691.25
2022-08-20T03:26:10.867Z,95691.13
2022-08-20T03:31:12.671Z,95694.34
2022-08-20T03:36:22.122Z,95701.13
2022-08-20T03:41:33.210Z,95693.72
2022-08-20T03:46:35.401Z,95705.25
2022-08-20T03:51:56.260Z,95700.94
2022-08-20T03:57:03.004Z,95709.38
2022-08-20T04:02:14.736Z,95709.53
2022-08-20T04:07:25.984Z,95711.19
2022-08-20T04:12:28.446Z,95705.00
2022-08-20T04:17:34.215Z,95706.34
2022-08-20T04:22:40.085Z,95702.16
2022-08-20T04:27:42.788Z,95706.31
2022-08-20T04:32:44.773Z,95715.84
2022-08-20T04:37:48.770Z,95719.06
2022-08-20T04:42:54.022Z,95718.59
2022-08-20T04:47:57.549Z,95715.41
2022-08-20T04:53:00.518Z,95724.03
2022-08-20T04:58:09.749Z,95720.81
2022-08-20T05:03:12.360Z,95729.13
2022-08-20T05:08:18.765Z,95735.41
2022-08-20T05:13:25.402Z,95743.19
2022-08-20T05:18:32.983Z,95733.19
2022-08-20T05:23:36.837Z,95745.66
2022-08-20T05:28:57.476Z,95749.53
2022-08-20T05:34:12.167Z,95754.78
2022-08-20T05:39:15.386Z,95758.94
2022-08-20T05:44:18.992Z,95757.59
2022-08-20T05:49:23.436Z,95756.69
2022-08-20T05:54:25.838Z,95749.78
2022-08-20T05:59:27.650Z,95765.50
2022-08-20T06:04:32.163Z,95764.31
2022-08-20T06:09:35.126Z,95751.78
2022-08-20T06:14:36.709Z,95750.25
2022-08-20T06:19:39.190Z,95755.22
2022-08-20T06:24:47.387Z,95758.63
2022-08-20T06:29:52.041Z,95760.47
2022-08-20T06:34:54.095Z,95760.34
2022-08-20T06:39:55.699Z,95769.78
2022-08-20T06:44:59.631Z,95775.66
2022-08-20T06:50:01.331Z,95779.97
2022-08-20T06:55:03.029Z,95776.44
2022-08-20T07:00:08.518Z,95763.00
2022-08-20T07:05:10.720Z,95772.09
2022-08-20T07:10:14.056Z,95782.75
2022-08-20T07:15:16.822Z,95776.75
2022-08-20T07:20:19.239Z,95787.38
2022-08-20T07:25:22.326Z,95788.47
2022-08-20T07:30:57.009Z,95789.91
2022-08-20T07:36:03.482Z,95796.09
2022-08-20T07:41:13.124Z,95797.50
2022-08-20T07:46:17.768Z,95801.50
2022-08-20T07:51:22.597Z,95805.50
2022-08-20T07:56:24.812Z,95804.59
2022-08-20T08:01:31.306Z,95821.09
2022-08-20T08:06:34.019Z,95819.41
2022-08-20T08:11:39.251Z,95822.97
2022-08-20T08:16:46.054Z,95821.41
2022-08-20T08:21:48.116Z,95812.91
2022-08-20T08:26:50.369Z,95817.38
2022-08-20T08:31:53.083Z,95824.78
2022-08-20T08:36:55.365Z,95819.69
2022-08-20T08:42:01.600Z,95828.47
2022-08-20T08:47:18.496Z,95833.84
2022-08-20T08:52:35.493Z,95851.69
2022-08-20T08:57:37.705Z,95845.84
2022-08-20T09:02:39.742Z,95844.59
2022-08-20T09:07:46.959Z,95843.69
2022-08-20T09:12:48.650Z,95851.25
2022-08-20T09:17:51.307Z,95856.66
2022-08-20T09:22:53.364Z,95853.28
2022-08-20T09:27:56.110Z,95853.28
2022-08-20T09:33:00.075Z,95845.94
2022-08-20T09:38:02.969Z,95846.56
2022-08-20T09:43:09.155Z,95843.19
2022-08-20T09:48:11.306Z,95851.09
2022-08-20T09:53:15.308Z,95853.41
2022-08-20T09:58:38.716Z,95863.59
2022-08-20T10:03:43.438Z,95859.59
2022-08-20T10:08:45.231Z,95858.66
2022-08-20T10:13:46.902Z,95867.00
2022-08-20T10:18:49.521Z,95865.03
2022-08-20T10:23:51.134Z,95860.22
2022-08-20T10:28:52.827Z,95864.69
2022-08-20T10:33:54.479Z,95867.47
2022-08-20T10:38:56.019Z,95873.47
2022-08-20T10:43:57.699Z,95880.25
2022-08-20T10:48:59.446Z,95875.03
2022-08-20T10:54:01.165Z,95877.81
2022-08-20T10:59:04.592Z,95872.88
2022-08-20T11:04:06.948Z,95875.22
2022-08-20T11:09:09.895Z,95892.31
2022-08-20T11:14:13.503Z,95890.44
2022-08-20T11:19:16.357Z,95882.88
2022-08-20T11:24:19.057Z,95884.44
2022-08-20T11:29:23.020Z,95874.13
2022-08-20T11:34:25.219Z,95880.00
2022-08-20T11:39:28.038Z,95881.19
2022-08-20T11:44:29.661Z,95881.09
2022-08-20T11:49:34.293Z,95880.16
2022-08-20T11:54:40.804Z,95878.03
2022-08-20T11:59:49.195Z,95874.66
2022-08-20T12:04:51.516Z,95872.97
2022-08-20T12:09:53.728Z,95863.75
2022-08-20T12:14:56.315Z,95864.34
2022-08-20T12:20:01.678Z,95860.56
2022-08-20T12:25:08.052Z,95853.66
2022-08-20T12:30:14.586Z,95858.72
2022-08-20T12:35:19.079Z,95863.38
2022-08-20T12:40:31.759Z,95869.09
2022-08-20T12:45:39.659Z,95862.50
2022-08-20T12:50:43.476Z,95857.13
2022-08-20T12:55:46.286Z,95867.13
2022-08-20T13:00:50.855Z,95860.97
2022-08-20T13:05:53.928Z,95873.50
2022-08-20T13:10:55.619Z,95860.25
2022-08-20T13:15:58.279Z,95867.19
2022-08-20T13:21:00.897Z,95873.38
2022-08-20T13:26:05.306Z,95858.09
2022-08-20T13:31:07.873Z,95851.91
2022-08-20T13:36:09.842Z,95854.84
2022-08-20T13:41:14.398Z,95845.16
2022-08-20T13:46:16.619Z,95847.34
2022-08-20T13:51:19.172Z,95844.41
2022-08-20T13:56:26.609Z,95838.22
2022-08-20T14:01:28.898Z,95839.16
2022-08-20T14:06:31.847Z,95841.94
2022-08-20T14:11:33.493Z,95839.28
2022-08-20T14:16:35.865Z,95837.41
2022-08-20T14:21:38.542Z,95838.34
2022-08-20T14:26:41.254Z,95837.25
2022-08-20T14:31:43.205Z,95834.16
2022-08-20T14:36:44.840Z,95843.88
2022-08-20T14:41:49.523Z,95841.72
2022-08-20T14:46:51.842Z,95832.44
2022-08-20T14:51:57.089Z,95829.03
2022-08-20T14:57:02.147Z,95826.84
2022-08-20T15:02:06.184Z,95817.88
2022-08-20T15:07:16.265Z,95827.31
2022-08-20T15:12:18.754Z,95836.44
2022-08-20T15:17:27.941Z,95829.63
2022-08-20T15:22:29.626Z,95824.81
2022-08-20T15:27:31.364Z,95829.63
2022-08-20T15:32:33.824Z,95835.94
2022-08-20T15:37:43.508Z,95843.53
2022-08-20T15:42:46.632Z,95846.00
2022-08-20T15:47:55.576Z,95855.47
2022-08-20T15:53:20.839Z,95856.41
2022-08-20T15:58:33.435Z,95853.31
2022-08-20T16:04:02.667Z,95871.75
2022-08-20T16:09:20.807Z,95874.03
2022-08-20T16:14:35.376Z,95868.78
2022-08-20T16:19:59.293Z,95874.06
2022-08-20T16:25:03.017Z,95889.66
2022-08-20T16:30:13.015Z,95897.41
2022-08-20T16:35:29.431Z,95888.72
2022-08-20T16:40:43.488Z,95891.94
2022-08-20T16:46:00.081Z,95886.97
2022-08-20T16:51:17.051Z,95891.59
2022-08-20T16:56:44.071Z,95891.13
2022-08-20T17:01:50.328Z,95892.81
2022-08-20T17:06:52.562Z,95885.84
2022-08-20T17:12:13.941Z,95888.00
2022-08-20T17:17:23.937Z,95889.56
2022-08-20T17:22:30.458Z,95905.00
2022-08-20T17:27:32.337Z,95910.53
2022-08-20T17:32:34.381Z,95916.88
2022-08-20T17:37:42.030Z,95919.34
2022-08-20T17:42:58.220Z,95914.38
2022-08-20T17:48:00.770Z,95912.19
2022-08-20T17:53:23.869Z,95914.50
2022-08-20T17:58:54.847Z,95917.09
2022-08-20T18:03:57.836Z,95918.59
2022-08-20T18:09:04.602Z,95931.09
2022-08-20T18:14:31.231Z,95940.41
2022-08-20T18:20:05.434Z,95957.47
2022-08-20T18:25:30.564Z,95940.91
2022-08-20T18:30:33.313Z,95941.50
2022-08-20T18:35:45.895Z,95928.97
2022-08-20T18:40:50.042Z,95916.00
2022-08-20T18:45:54.795Z,95912.56
2022-08-20T18:50:58.093Z,95934.16
2022-08-20T18:56:08.482Z,95933.97
2022-08-20T19:01:13.770Z,95934.41
2022-08-20T19:06:15.380Z,95916.41
2022-08-20T19:11:28.073Z,95916.25
2022-08-20T19:16:51.278Z,95917.81
2022-08-20T19:21:55.487Z,95914.59
2022-08-20T19:27:00.349Z,95918.94
2022-08-20T19:32:06.522Z,95924.16
2022-08-20T19:37:32.764Z,95925.63
2022-08-20T19:42:42.859Z,95911.94
2022-08-20T19:48:02.701Z,95908.97
2022-08-20T19:53:11.858Z,95908.66
2022-08-20T19:58:26.348Z,95903.44
2022-08-20T20:03:32.931Z,95906.97
2022-08-20T20:08:41.644Z,95905.28
2022-08-20T20:13:44.645Z,95905.19
2022-08-20T20:19:03.767Z,95907.38
2022-08-20T20:24:11.934Z,95911.56
2022-08-20T20:29:34.245Z,95912.34
2022-08-20T20:34:55.388Z,95905.56
2022-08-20T20:40:07.913Z,95911.44
2022-08-20T20:45:20.904Z,95905.88
2022-08-20T20:50:35.155Z,95900.66
2022-08-20T20:55:38.287Z,95902.97
2022-08-20T21:00:39.926Z,95908.41
2022-08-20T21:05:41.632Z,95903.63
2022-08-20T21:10:44.107Z,95898.84
2022-08-20T21:15:46.402Z,95896.06
2022-08-20T21:20:50.942Z,95888.97
2022-08-20T21:25:53.387Z,95894.97
2022-08-20T21:30:58.524Z,95888.78
2022-08-20T21:36:01.979Z,95894.78
2022-08-20T21:41:04.849Z,95899.56
2022-08-20T21:46:09.756Z,95892.94
2022-08-20T21:51:14.493Z,95903.38
2022-08-20T21:56:24.516Z,95892.84
2022-08-20T22:01:26.594Z,95887.75
2022-08-20T22:06:28.357Z,95891.00
2022-08-20T22:11:30.403Z,95884.97
2022-08-20T22:16:32.167Z,95891.63
2022-08-20T22:21:35.022Z,95890.84
2022-08-20T22:26:39.868Z,95901.94
2022-08-20T22:31:43.263Z,95896.88
2022-08-20T22:36:45.026Z,95892.53
2022-08-20T22:41:46.637Z,95881.44
2022-08-20T22:46:53.898Z,95892.09
2022-08-20T22:51:57.633Z,95883.28
2022-08-20T22:57:00.454Z,95871.91
2022-08-20T23:02:08.365Z,95886.53
2022-08-20T23:07:14.142Z,95873.59
2022-08-20T23:12:16.598Z,95874.47
2022-08-20T23:17:19.629Z,95879.38
2022-08-20T23:22:23.126Z,95873.94
2022-08-20T23:27:28.880Z,95869.16
2022-08-20T23:32:31.410Z,95872.06
2022-08-20T23:37:41.026Z,95860.63
2022-08-20T23:42:43.895Z,95856.66
2022-08-20T23:47:46.345Z,95854.66
2022-08-20T23:52:48.436Z,95852.63
2022-08-20T23:57:52.433Z,95856.19
